sensor_id;sensor_type;location;lat;lon;timestamp;temperature;humidity
69281;SHT31;56392;51.082;17.080;2023-05-19T00:05:04;12.41;71.13
69281;SHT31;56392;51.082;17.080;2023-05-19T00:10:29;12.31;71.48
69281;SHT31;56392;51.082;17.080;2023-05-19T00:15:54;12.27;71.63
69281;SHT31;56392;51.082;17.080;2023-05-19T00:21:17;12.24;71.66
69281;SHT31;56392;51.082;17.080;2023-05-19T00:26:41;12.17;71.98
69281;SHT31;56392;51.082;17.080;2023-05-19T00:32:04;12.14;72.17
69281;SHT31;56392;51.082;17.080;2023-05-19T00:37:27;12.00;72.59
69281;SHT31;56392;51.082;17.080;2023-05-19T00:42:52;11.96;72.25
69281;SHT31;56392;51.082;17.080;2023-05-19T00:48:15;11.90;72.48
69281;SHT31;56392;51.082;17.080;2023-05-19T00:53:38;11.87;72.25
69281;SHT31;56392;51.082;17.080;2023-05-19T00:59:03;11.87;72.41
69281;SHT31;56392;51.082;17.080;2023-05-19T01:04:26;11.79;72.64
69281;SHT31;56392;51.082;17.080;2023-05-19T01:09:50;11.75;73.01
69281;SHT31;56392;51.082;17.080;2023-05-19T01:15:15;11.79;72.74
69281;SHT31;56392;51.082;17.080;2023-05-19T01:20:40;11.75;72.58
69281;SHT31;56392;51.082;17.080;2023-05-19T01:26:18;11.76;72.49
69281;SHT31;56392;51.082;17.080;2023-05-19T01:31:51;11.77;72.80
69281;SHT31;56392;51.082;17.080;2023-05-19T01:37:16;11.77;72.70
69281;SHT31;56392;51.082;17.080;2023-05-19T01:42:39;11.70;72.77
69281;SHT31;56392;51.082;17.080;2023-05-19T01:48:05;11.72;72.88
69281;SHT31;56392;51.082;17.080;2023-05-19T01:53:28;11.70;72.77
69281;SHT31;56392;51.082;17.080;2023-05-19T01:58:56;11.69;72.86
69281;SHT31;56392;51.082;17.080;2023-05-19T02:04:29;11.70;72.81
69281;SHT31;56392;51.082;17.080;2023-05-19T02:10:04;11.69;72.91
69281;SHT31;56392;51.082;17.080;2023-05-19T02:15:33;11.69;72.85
69281;SHT31;56392;51.082;17.080;2023-05-19T02:21:00;11.66;72.87
69281;SHT31;56392;51.082;17.080;2023-05-19T02:26:23;11.63;73.41
69281;SHT31;56392;51.082;17.080;2023-05-19T02:31:47;11.52;74.06
69281;SHT31;56392;51.082;17.080;2023-05-19T02:37:11;11.49;74.32
69281;SHT31;56392;51.082;17.080;2023-05-19T02:42:35;11.45;74.71
69281;SHT31;56392;51.082;17.080;2023-05-19T02:47:58;11.45;74.52
69281;SHT31;56392;51.082;17.080;2023-05-19T02:53:22;11.40;74.83
69281;SHT31;56392;51.082;17.080;2023-05-19T02:58:45;11.38;74.99
69281;SHT31;56392;51.082;17.080;2023-05-19T03:04:08;11.39;75.29
69281;SHT31;56392;51.082;17.080;2023-05-19T03:09:33;11.36;75.51
69281;SHT31;56392;51.082;17.080;2023-05-19T03:14:56;11.36;75.18
69281;SHT31;56392;51.082;17.080;2023-05-19T03:20:19;11.40;75.41
69281;SHT31;56392;51.082;17.080;2023-05-19T03:25:44;11.42;75.52
69281;SHT31;56392;51.082;17.080;2023-05-19T03:31:07;11.46;75.50
69281;SHT31;56392;51.082;17.080;2023-05-19T03:36:30;11.52;75.65
69281;SHT31;56392;51.082;17.080;2023-05-19T03:41:54;11.55;75.61
69281;SHT31;56392;51.082;17.080;2023-05-19T03:47:17;11.56;75.72
69281;SHT31;56392;51.082;17.080;2023-05-19T03:52:40;11.58;75.61
69281;SHT31;56392;51.082;17.080;2023-05-19T03:58:07;11.61;75.63
69281;SHT31;56392;51.082;17.080;2023-05-19T04:03:31;11.62;75.70
69281;SHT31;56392;51.082;17.080;2023-05-19T04:08:54;11.62;75.90
69281;SHT31;56392;51.082;17.080;2023-05-19T04:14:18;11.70;76.01
69281;SHT31;56392;51.082;17.080;2023-05-19T04:19:41;11.72;75.43
69281;SHT31;56392;51.082;17.080;2023-05-19T04:25:05;11.70;75.34
69281;SHT31;56392;51.082;17.080;2023-05-19T04:30:30;11.69;75.48
69281;SHT31;56392;51.082;17.080;2023-05-19T04:35:54;11.72;75.17
69281;SHT31;56392;51.082;17.080;2023-05-19T04:41:19;11.65;75.17
69281;SHT31;56392;51.082;17.080;2023-05-19T04:46:44;11.69;75.13
69281;SHT31;56392;51.082;17.080;2023-05-19T04:52:08;11.75;75.04
69281;SHT31;56392;51.082;17.080;2023-05-19T04:57:32;11.80;74.93
69281;SHT31;56392;51.082;17.080;2023-05-19T05:02:57;11.87;74.78
69281;SHT31;56392;51.082;17.080;2023-05-19T05:08:21;11.86;74.41
69281;SHT31;56392;51.082;17.080;2023-05-19T05:13:45;11.85;74.05
69281;SHT31;56392;51.082;17.080;2023-05-19T05:19:10;11.87;74.19
69281;SHT31;56392;51.082;17.080;2023-05-19T05:24:33;11.91;74.22
69281;SHT31;56392;51.082;17.080;2023-05-19T05:29:56;11.93;74.02
69281;SHT31;56392;51.082;17.080;2023-05-19T05:35:22;11.99;73.93
69281;SHT31;56392;51.082;17.080;2023-05-19T05:40:46;12.03;73.87
69281;SHT31;56392;51.082;17.080;2023-05-19T05:46:09;12.07;73.92
69281;SHT31;56392;51.082;17.080;2023-05-19T05:51:34;12.10;73.77
69281;SHT31;56392;51.082;17.080;2023-05-19T05:56:57;12.16;73.79
69281;SHT31;56392;51.082;17.080;2023-05-19T06:02:20;12.16;73.53
69281;SHT31;56392;51.082;17.080;2023-05-19T06:07:45;12.18;73.70
69281;SHT31;56392;51.082;17.080;2023-05-19T06:13:08;12.21;73.61
69281;SHT31;56392;51.082;17.080;2023-05-19T06:18:31;12.23;73.57
69281;SHT31;56392;51.082;17.080;2023-05-19T06:23:55;12.26;73.74
69281;SHT31;56392;51.082;17.080;2023-05-19T06:29:18;12.33;73.88
69281;SHT31;56392;51.082;17.080;2023-05-19T06:34:41;12.38;74.19
69281;SHT31;56392;51.082;17.080;2023-05-19T06:40:07;12.41;74.18
69281;SHT31;56392;51.082;17.080;2023-05-19T06:45:30;12.41;74.32
69281;SHT31;56392;51.082;17.080;2023-05-19T06:50:53;12.42;74.29
69281;SHT31;56392;51.082;17.080;2023-05-19T06:56:18;12.44;73.94
69281;SHT31;56392;51.082;17.080;2023-05-19T07:01:43;12.38;74.54
69281;SHT31;56392;51.082;17.080;2023-05-19T07:07:06;12.40;74.26
69281;SHT31;56392;51.082;17.080;2023-05-19T07:12:30;12.41;74.26
69281;SHT31;56392;51.082;17.080;2023-05-19T07:17:53;12.40;74.15
69281;SHT31;56392;51.082;17.080;2023-05-19T07:23:16;12.47;73.91
69281;SHT31;56392;51.082;17.080;2023-05-19T07:28:41;12.45;73.91
69281;SHT31;56392;51.082;17.080;2023-05-19T07:34:04;12.52;73.88
69281;SHT31;56392;51.082;17.080;2023-05-19T07:39:27;12.55;73.69
69281;SHT31;56392;51.082;17.080;2023-05-19T07:44:51;12.57;73.82
69281;SHT31;56392;51.082;17.080;2023-05-19T07:50:14;12.54;73.93
69281;SHT31;56392;51.082;17.080;2023-05-19T07:55:38;12.62;74.36
69281;SHT31;56392;51.082;17.080;2023-05-19T08:01:02;12.62;74.24
69281;SHT31;56392;51.082;17.080;2023-05-19T08:06:25;12.71;74.58
69281;SHT31;56392;51.082;17.080;2023-05-19T08:11:48;12.71;74.58
69281;SHT31;56392;51.082;17.080;2023-05-19T08:17:13;12.75;74.75
69281;SHT31;56392;51.082;17.080;2023-05-19T08:22:36;12.77;74.01
69281;SHT31;56392;51.082;17.080;2023-05-19T08:28:00;12.71;73.38
69281;SHT31;56392;51.082;17.080;2023-05-19T08:33:24;12.77;72.74
69281;SHT31;56392;51.082;17.080;2023-05-19T08:38:47;12.87;72.76
69281;SHT31;56392;51.082;17.080;2023-05-19T08:44:10;12.96;73.05
69281;SHT31;56392;51.082;17.080;2023-05-19T08:49:42;13.08;72.99
69281;SHT31;56392;51.082;17.080;2023-05-19T08:55:08;13.13;72.73
69281;SHT31;56392;51.082;17.080;2023-05-19T09:00:34;13.19;72.62
69281;SHT31;56392;51.082;17.080;2023-05-19T09:05:59;13.22;72.56
69281;SHT31;56392;51.082;17.080;2023-05-19T09:11:22;13.27;72.41
69281;SHT31;56392;51.082;17.080;2023-05-19T09:16:47;13.24;71.40
69281;SHT31;56392;51.082;17.080;2023-05-19T09:22:15;13.32;71.87
69281;SHT31;56392;51.082;17.080;2023-05-19T09:27:39;13.39;72.02
69281;SHT31;56392;51.082;17.080;2023-05-19T09:33:03;13.42;71.82
69281;SHT31;56392;51.082;17.080;2023-05-19T09:38:31;13.50;71.68
69281;SHT31;56392;51.082;17.080;2023-05-19T09:43:55;13.59;71.57
69281;SHT31;56392;51.082;17.080;2023-05-19T09:49:19;13.63;71.52
69281;SHT31;56392;51.082;17.080;2023-05-19T09:54:44;13.74;71.29
69281;SHT31;56392;51.082;17.080;2023-05-19T10:00:10;13.82;71.60
69281;SHT31;56392;51.082;17.080;2023-05-19T10:05:35;13.88;71.11
69281;SHT31;56392;51.082;17.080;2023-05-19T10:11:00;13.88;70.23
69281;SHT31;56392;51.082;17.080;2023-05-19T10:16:25;13.91;70.57
69281;SHT31;56392;51.082;17.080;2023-05-19T10:21:50;13.90;70.37
69281;SHT31;56392;51.082;17.080;2023-05-19T10:27:15;13.88;70.66
69281;SHT31;56392;51.082;17.080;2023-05-19T10:32:40;13.91;70.84
69281;SHT31;56392;51.082;17.080;2023-05-19T10:38:11;13.94;70.95
69281;SHT31;56392;51.082;17.080;2023-05-19T10:43:50;14.00;71.37
69281;SHT31;56392;51.082;17.080;2023-05-19T10:49:19;14.00;71.92
69281;SHT31;56392;51.082;17.080;2023-05-19T10:54:43;13.97;71.42
69281;SHT31;56392;51.082;17.080;2023-05-19T11:00:27;13.95;71.41
69281;SHT31;56392;51.082;17.080;2023-05-19T11:05:51;13.97;71.73
69281;SHT31;56392;51.082;17.080;2023-05-19T11:11:15;13.95;71.65
69281;SHT31;56392;51.082;17.080;2023-05-19T11:16:40;13.95;71.50
69281;SHT31;56392;51.082;17.080;2023-05-19T11:22:08;14.00;71.59
69281;SHT31;56392;51.082;17.080;2023-05-19T11:27:31;13.98;71.23
69281;SHT31;56392;51.082;17.080;2023-05-19T11:32:56;13.97;71.01
69281;SHT31;56392;51.082;17.080;2023-05-19T11:38:20;13.95;70.85
69281;SHT31;56392;51.082;17.080;2023-05-19T11:43:46;13.95;71.06
69281;SHT31;56392;51.082;17.080;2023-05-19T11:49:10;13.90;71.31
69281;SHT31;56392;51.082;17.080;2023-05-19T11:54:34;13.88;71.60
69281;SHT31;56392;51.082;17.080;2023-05-19T12:00:00;13.87;71.70
69281;SHT31;56392;51.082;17.080;2023-05-19T12:05:27;13.88;71.63
69281;SHT31;56392;51.082;17.080;2023-05-19T12:10:51;13.82;71.49
69281;SHT31;56392;51.082;17.080;2023-05-19T12:16:14;13.82;71.75
69281;SHT31;56392;51.082;17.080;2023-05-19T12:21:39;13.90;71.94
69281;SHT31;56392;51.082;17.080;2023-05-19T12:27:05;13.97;71.79
69281;SHT31;56392;51.082;17.080;2023-05-19T12:32:29;13.97;71.68
69281;SHT31;56392;51.082;17.080;2023-05-19T12:38:01;13.90;71.55
69281;SHT31;56392;51.082;17.080;2023-05-19T12:43:24;13.92;71.64
69281;SHT31;56392;51.082;17.080;2023-05-19T12:48:48;13.92;71.69
69281;SHT31;56392;51.082;17.080;2023-05-19T12:54:17;13.92;71.85
69281;SHT31;56392;51.082;17.080;2023-05-19T12:59:41;13.88;71.74
69281;SHT31;56392;51.082;17.080;2023-05-19T13:05:04;13.91;71.85
69281;SHT31;56392;51.082;17.080;2023-05-19T13:10:29;13.92;71.87
69281;SHT31;56392;51.082;17.080;2023-05-19T13:15:53;13.92;71.77
69281;SHT31;56392;51.082;17.080;2023-05-19T13:21:17;13.94;71.96
69281;SHT31;56392;51.082;17.080;2023-05-19T13:26:41;13.94;71.94
69281;SHT31;56392;51.082;17.080;2023-05-19T13:32:05;14.01;72.11
69281;SHT31;56392;51.082;17.080;2023-05-19T13:37:29;14.05;72.10
69281;SHT31;56392;51.082;17.080;2023-05-19T13:42:53;14.09;72.03
69281;SHT31;56392;51.082;17.080;2023-05-19T13:48:16;14.02;72.03
69281;SHT31;56392;51.082;17.080;2023-05-19T13:53:39;14.09;72.14
69281;SHT31;56392;51.082;17.080;2023-05-19T13:59:04;14.14;72.26
69281;SHT31;56392;51.082;17.080;2023-05-19T14:04:27;14.18;72.22
69281;SHT31;56392;51.082;17.080;2023-05-19T14:09:50;14.24;72.00
69281;SHT31;56392;51.082;17.080;2023-05-19T14:15:15;14.31;71.83
69281;SHT31;56392;51.082;17.080;2023-05-19T14:20:41;14.33;71.85
69281;SHT31;56392;51.082;17.080;2023-05-19T14:26:04;14.28;71.78
69281;SHT31;56392;51.082;17.080;2023-05-19T14:31:29;14.25;71.69
69281;SHT31;56392;51.082;17.080;2023-05-19T14:36:54;14.28;71.63
69281;SHT31;56392;51.082;17.080;2023-05-19T14:42:17;14.29;71.67
69281;SHT31;56392;51.082;17.080;2023-05-19T14:47:41;14.32;72.06
69281;SHT31;56392;51.082;17.080;2023-05-19T14:53:04;14.35;71.99
69281;SHT31;56392;51.082;17.080;2023-05-19T14:58:28;14.46;71.90
69281;SHT31;56392;51.082;17.080;2023-05-19T15:03:52;14.52;71.90
69281;SHT31;56392;51.082;17.080;2023-05-19T15:09:15;14.53;71.60
69281;SHT31;56392;51.082;17.080;2023-05-19T15:14:38;14.56;71.51
69281;SHT31;56392;51.082;17.080;2023-05-19T15:20:05;14.53;71.33
69281;SHT31;56392;51.082;17.080;2023-05-19T15:25:28;14.53;71.47
69281;SHT31;56392;51.082;17.080;2023-05-19T15:30:52;14.52;71.65
69281;SHT31;56392;51.082;17.080;2023-05-19T15:36:16;14.56;71.37
69281;SHT31;56392;51.082;17.080;2023-05-19T15:41:39;14.53;71.42
69281;SHT31;56392;51.082;17.080;2023-05-19T15:47:02;14.56;71.68
69281;SHT31;56392;51.082;17.080;2023-05-19T15:52:27;14.58;71.61
69281;SHT31;56392;51.082;17.080;2023-05-19T15:57:50;14.59;71.47
69281;SHT31;56392;51.082;17.080;2023-05-19T16:03:13;14.62;71.24
69281;SHT31;56392;51.082;17.080;2023-05-19T16:08:38;14.62;71.30
69281;SHT31;56392;51.082;17.080;2023-05-19T16:14:01;14.63;71.48
69281;SHT31;56392;51.082;17.080;2023-05-19T16:19:24;14.65;71.53
69281;SHT31;56392;51.082;17.080;2023-05-19T16:24:49;14.69;71.42
69281;SHT31;56392;51.082;17.080;2023-05-19T16:30:12;14.68;71.46
69281;SHT31;56392;51.082;17.080;2023-05-19T16:35:35;14.73;71.38
69281;SHT31;56392;51.082;17.080;2023-05-19T16:40:59;14.77;71.41
69281;SHT31;56392;51.082;17.080;2023-05-19T16:46:24;14.75;71.35
69281;SHT31;56392;51.082;17.080;2023-05-19T16:51:48;14.80;71.64
69281;SHT31;56392;51.082;17.080;2023-05-19T16:57:14;14.73;71.74
69281;SHT31;56392;51.082;17.080;2023-05-19T17:02:37;14.73;71.47
69281;SHT31;56392;51.082;17.080;2023-05-19T17:08:00;14.70;71.54
69281;SHT31;56392;51.082;17.080;2023-05-19T17:13:25;14.69;71.70
69281;SHT31;56392;51.082;17.080;2023-05-19T17:18:49;14.65;71.82
69281;SHT31;56392;51.082;17.080;2023-05-19T17:24:12;14.69;71.89
69281;SHT31;56392;51.082;17.080;2023-05-19T17:29:36;14.70;71.67
69281;SHT31;56392;51.082;17.080;2023-05-19T17:34:59;14.70;71.62
69281;SHT31;56392;51.082;17.080;2023-05-19T17:40:23;14.70;71.60
69281;SHT31;56392;51.082;17.080;2023-05-19T17:45:48;14.68;71.78
69281;SHT31;56392;51.082;17.080;2023-05-19T17:51:11;14.70;71.87
69281;SHT31;56392;51.082;17.080;2023-05-19T17:56:39;14.70;72.08
69281;SHT31;56392;51.082;17.080;2023-05-19T18:02:04;14.68;72.47
69281;SHT31;56392;51.082;17.080;2023-05-19T18:07:28;14.69;72.31
69281;SHT31;56392;51.082;17.080;2023-05-19T18:12:54;14.69;72.39
69281;SHT31;56392;51.082;17.080;2023-05-19T18:18:18;14.69;72.42
69281;SHT31;56392;51.082;17.080;2023-05-19T18:23:41;14.60;72.26
69281;SHT31;56392;51.082;17.080;2023-05-19T18:29:05;14.62;72.41
69281;SHT31;56392;51.082;17.080;2023-05-19T18:34:29;14.55;72.61
69281;SHT31;56392;51.082;17.080;2023-05-19T18:39:52;14.58;72.75
69281;SHT31;56392;51.082;17.080;2023-05-19T18:45:17;14.56;72.63
69281;SHT31;56392;51.082;17.080;2023-05-19T18:50:45;14.55;72.65
69281;SHT31;56392;51.082;17.080;2023-05-19T18:56:10;14.53;72.72
69281;SHT31;56392;51.082;17.080;2023-05-19T19:01:33;14.53;72.77
69281;SHT31;56392;51.082;17.080;2023-05-19T19:06:58;14.48;72.86
69281;SHT31;56392;51.082;17.080;2023-05-19T19:12:22;14.46;72.80
69281;SHT31;56392;51.082;17.080;2023-05-19T19:17:46;14.40;73.13
69281;SHT31;56392;51.082;17.080;2023-05-19T19:23:11;14.40;73.35
69281;SHT31;56392;51.082;17.080;2023-05-19T19:28:34;14.40;73.29
69281;SHT31;56392;51.082;17.080;2023-05-19T19:33:57;14.38;73.44
69281;SHT31;56392;51.082;17.080;2023-05-19T19:39:25;14.40;73.57
69281;SHT31;56392;51.082;17.080;2023-05-19T19:44:53;14.40;73.82
69281;SHT31;56392;51.082;17.080;2023-05-19T19:50:16;14.38;73.87
69281;SHT31;56392;51.082;17.080;2023-05-19T19:55:41;14.36;73.86
69281;SHT31;56392;51.082;17.080;2023-05-19T20:01:04;14.38;73.96
69281;SHT31;56392;51.082;17.080;2023-05-19T20:06:28;14.35;74.13
69281;SHT31;56392;51.082;17.080;2023-05-19T20:11:53;14.31;74.24
69281;SHT31;56392;51.082;17.080;2023-05-19T20:17:17;14.31;74.37
69281;SHT31;56392;51.082;17.080;2023-05-19T20:22:40;14.28;74.49
69281;SHT31;56392;51.082;17.080;2023-05-19T20:28:06;14.24;74.64
69281;SHT31;56392;51.082;17.080;2023-05-19T20:33:29;14.22;74.79
69281;SHT31;56392;51.082;17.080;2023-05-19T20:38:53;14.19;74.88
69281;SHT31;56392;51.082;17.080;2023-05-19T20:44:17;14.18;75.05
69281;SHT31;56392;51.082;17.080;2023-05-19T20:49:40;14.11;75.23
69281;SHT31;56392;51.082;17.080;2023-05-19T20:55:03;14.12;75.39
69281;SHT31;56392;51.082;17.080;2023-05-19T21:00:28;14.12;75.46
69281;SHT31;56392;51.082;17.080;2023-05-19T21:05:51;14.05;75.73
69281;SHT31;56392;51.082;17.080;2023-05-19T21:11:14;14.04;75.76
69281;SHT31;56392;51.082;17.080;2023-05-19T21:16:38;14.02;75.90
69281;SHT31;56392;51.082;17.080;2023-05-19T21:22:03;14.00;75.95
69281;SHT31;56392;51.082;17.080;2023-05-19T21:27:26;13.97;76.13
69281;SHT31;56392;51.082;17.080;2023-05-19T21:32:52;13.98;76.19
69281;SHT31;56392;51.082;17.080;2023-05-19T21:38:15;13.94;76.34
69281;SHT31;56392;51.082;17.080;2023-05-19T21:43:38;13.95;76.31
69281;SHT31;56392;51.082;17.080;2023-05-19T21:49:03;13.92;76.46
69281;SHT31;56392;51.082;17.080;2023-05-19T21:54:26;13.87;76.67
69281;SHT31;56392;51.082;17.080;2023-05-19T21:59:49;13.82;76.76
69281;SHT31;56392;51.082;17.080;2023-05-19T22:05:13;13.87;76.81
69281;SHT31;56392;51.082;17.080;2023-05-19T22:10:37;13.81;76.94
69281;SHT31;56392;51.082;17.080;2023-05-19T22:16:00;13.80;77.03
69281;SHT31;56392;51.082;17.080;2023-05-19T22:21:26;13.77;77.20
69281;SHT31;56392;51.082;17.080;2023-05-19T22:26:49;13.80;77.31
69281;SHT31;56392;51.082;17.080;2023-05-19T22:32:13;13.77;77.43
69281;SHT31;56392;51.082;17.080;2023-05-19T22:37:39;13.74;77.53
69281;SHT31;56392;51.082;17.080;2023-05-19T22:43:03;13.75;77.58
69281;SHT31;56392;51.082;17.080;2023-05-19T22:48:26;13.74;77.52
69281;SHT31;56392;51.082;17.080;2023-05-19T22:53:50;13.77;77.51
69281;SHT31;56392;51.082;17.080;2023-05-19T22:59:13;13.75;77.49
69281;SHT31;56392;51.082;17.080;2023-05-19T23:04:38;13.80;77.50
69281;SHT31;56392;51.082;17.080;2023-05-19T23:10:02;13.82;77.51
69281;SHT31;56392;51.082;17.080;2023-05-19T23:15:27;13.81;77.48
69281;SHT31;56392;51.082;17.080;2023-05-19T23:20:50;13.78;77.46
69281;SHT31;56392;51.082;17.080;2023-05-19T23:26:14;13.74;77.52
69281;SHT31;56392;51.082;17.080;2023-05-19T23:31:37;13.74;77.61
69281;SHT31;56392;51.082;17.080;2023-05-19T23:37:00;13.69;77.71
69281;SHT31;56392;51.082;17.080;2023-05-19T23:42:25;13.67;77.63
69281;SHT31;56392;51.082;17.080;2023-05-19T23:47:47;13.71;77.50
69281;SHT31;56392;51.082;17.080;2023-05-19T23:53:10;13.71;77.58
69281;SHT31;56392;51.082;17.080;2023-05-19T23:58:35;13.75;77.51
